Airfield :
LOGIN :

Register | Disclaimer

   EN    FR    IT 

 










Legend :    VFR   Marginal VFR   IFR   Intensive IFR   Very Intensive IFR
Visi :
Ceiling :
>= 8 km
>= 3000ft
5 to 8 km
1000 to 3000 ft
1500m to 5 km
500 to 1000 ft
800 to 1500m
200 to 500 ft
< 800m
< 200 ft
Symbols :   Thunderstorms  Fog  Heavy snow  Heavy precipitations  Wind > 20 kt
SIGMETs :     Misc.  Thunderstorms  Icing  Turbulence  Mountain Waves  Volcanic Ashes






- Airport Elevation : 598 ft
- IATA code : BQH


EGKB - Biggin Hill

CURRENT METAR :
  • 312020Z 06009KT 030V090 CAVOK 13/07 Q1023

EXPIRED METARs :
  • 311950Z 06011KT 030V100 CAVOK 14/07 Q1023
  • 311920Z 06011KT CAVOK 15/07 Q1023
  • 311850Z 07011KT 030V100 CAVOK 15/06 Q1023
  • 311820Z 07014KT 030V090 CAVOK 16/06 Q1023

Expired Forecast.



MET'MAP, your aeronautical weather chart ! - Copyright ORBIFLY December 2007 - Disclaimer

ORBIFLY MET'MAP TEAM :

Programming & Development : Alexandra Zaïnal
Concept & original design : Baudouin d'Aumeries
Assistance for programming : Marc-Olivier Méhu
Technical & hardware support : Manuel Goepfert

Contact : metmap@orbifly.com




SOURCES & CREDITS :

   NOAA